sensor_id;sensor_type;location;lat;lon;timestamp;temperature;humidity
22416;DHT22;12204;50.600;4.608;2022-09-23T00:01:17;23.20;68.40
22416;DHT22;12204;50.600;4.608;2022-09-23T00:06:23;23.20;68.30
22416;DHT22;12204;50.600;4.608;2022-09-23T00:11:28;23.10;68.30
22416;DHT22;12204;50.600;4.608;2022-09-23T00:16:33;23.10;68.30
22416;DHT22;12204;50.600;4.608;2022-09-23T00:21:37;23.10;68.40
22416;DHT22;12204;50.600;4.608;2022-09-23T00:26:42;23.10;68.50
22416;DHT22;12204;50.600;4.608;2022-09-23T00:31:46;23.10;68.70
22416;DHT22;12204;50.600;4.608;2022-09-23T00:36:49;23.10;68.70
22416;DHT22;12204;50.600;4.608;2022-09-23T00:41:54;23.10;68.80
22416;DHT22;12204;50.600;4.608;2022-09-23T00:46:57;23.00;68.90
22416;DHT22;12204;50.600;4.608;2022-09-23T00:52:06;23.00;69.00
22416;DHT22;12204;50.600;4.608;2022-09-23T00:57:16;23.00;69.10
22416;DHT22;12204;50.600;4.608;2022-09-23T01:06:17;23.00;68.50
22416;DHT22;12204;50.600;4.608;2022-09-23T01:11:29;23.00;69.20
22416;DHT22;12204;50.600;4.608;2022-09-23T01:16:43;23.00;69.10
22416;DHT22;12204;50.600;4.608;2022-09-23T01:21:56;23.00;69.10
22416;DHT22;12204;50.600;4.608;2022-09-23T01:27:13;23.00;69.30
22416;DHT22;12204;50.600;4.608;2022-09-23T01:32:42;23.00;69.30
22416;DHT22;12204;50.600;4.608;2022-09-23T01:38:13;23.00;69.50
22416;DHT22;12204;50.600;4.608;2022-09-23T01:43:31;22.90;69.50
22416;DHT22;12204;50.600;4.608;2022-09-23T01:48:45;22.90;69.50
22416;DHT22;12204;50.600;4.608;2022-09-23T01:53:58;23.00;69.40
22416;DHT22;12204;50.600;4.608;2022-09-23T01:59:12;23.00;69.20
22416;DHT22;12204;50.600;4.608;2022-09-23T02:04:24;23.00;69.10
22416;DHT22;12204;50.600;4.608;2022-09-23T02:09:35;23.00;69.50
22416;DHT22;12204;50.600;4.608;2022-09-23T02:14:48;22.90;69.70
22416;DHT22;12204;50.600;4.608;2022-09-23T02:19:59;22.90;69.70
22416;DHT22;12204;50.600;4.608;2022-09-23T02:25:07;22.90;69.70
22416;DHT22;12204;50.600;4.608;2022-09-23T02:30:18;22.90;69.80
22416;DHT22;12204;50.600;4.608;2022-09-23T02:35:30;22.90;69.70
22416;DHT22;12204;50.600;4.608;2022-09-23T02:40:42;22.90;69.80
22416;DHT22;12204;50.600;4.608;2022-09-23T02:45:51;22.90;69.80
22416;DHT22;12204;50.600;4.608;2022-09-23T02:50:58;22.80;69.80
22416;DHT22;12204;50.600;4.608;2022-09-23T02:56:13;22.80;70.70
22416;DHT22;12204;50.600;4.608;2022-09-23T03:01:31;22.80;70.10
22416;DHT22;12204;50.600;4.608;2022-09-23T03:06:51;22.80;70.20
22416;DHT22;12204;50.600;4.608;2022-09-23T03:12:11;22.70;70.20
22416;DHT22;12204;50.600;4.608;2022-09-23T03:17:28;22.70;70.30
22416;DHT22;12204;50.600;4.608;2022-09-23T03:22:39;22.70;70.30
22416;DHT22;12204;50.600;4.608;2022-09-23T03:27:46;22.70;70.50
22416;DHT22;12204;50.600;4.608;2022-09-23T03:32:51;22.70;70.40
22416;DHT22;12204;50.600;4.608;2022-09-23T03:38:02;22.70;70.50
22416;DHT22;12204;50.600;4.608;2022-09-23T03:43:12;22.70;70.70
22416;DHT22;12204;50.600;4.608;2022-09-23T03:48:16;22.60;70.60
22416;DHT22;12204;50.600;4.608;2022-09-23T03:53:23;22.60;70.70
22416;DHT22;12204;50.600;4.608;2022-09-23T03:58:27;22.60;70.80
22416;DHT22;12204;50.600;4.608;2022-09-23T04:03:30;22.60;71.00
22416;DHT22;12204;50.600;4.608;2022-09-23T04:08:35;22.50;71.00
22416;DHT22;12204;50.600;4.608;2022-09-23T04:13:39;22.60;71.00
22416;DHT22;12204;50.600;4.608;2022-09-23T04:18:42;22.60;71.10
22416;DHT22;12204;50.600;4.608;2022-09-23T04:23:47;22.50;71.40
22416;DHT22;12204;50.600;4.608;2022-09-23T04:28:52;22.50;71.20
22416;DHT22;12204;50.600;4.608;2022-09-23T04:33:56;22.60;71.60
22416;DHT22;12204;50.600;4.608;2022-09-23T04:39:02;22.50;71.40
22416;DHT22;12204;50.600;4.608;2022-09-23T04:44:06;22.50;71.70
22416;DHT22;12204;50.600;4.608;2022-09-23T04:49:10;22.50;71.80
22416;DHT22;12204;50.600;4.608;2022-09-23T04:54:15;22.50;71.80
22416;DHT22;12204;50.600;4.608;2022-09-23T04:59:18;22.50;71.80
22416;DHT22;12204;50.600;4.608;2022-09-23T05:04:22;22.50;72.80
22416;DHT22;12204;50.600;4.608;2022-09-23T05:09:27;22.50;72.20
22416;DHT22;12204;50.600;4.608;2022-09-23T05:14:30;22.50;71.90
22416;DHT22;12204;50.600;4.608;2022-09-23T05:19:34;22.50;71.90
22416;DHT22;12204;50.600;4.608;2022-09-23T05:24:39;22.50;72.20
22416;DHT22;12204;50.600;4.608;2022-09-23T05:29:42;22.40;72.20
22416;DHT22;12204;50.600;4.608;2022-09-23T05:34:46;22.40;72.20
22416;DHT22;12204;50.600;4.608;2022-09-23T05:39:51;22.40;72.50
22416;DHT22;12204;50.600;4.608;2022-09-23T05:44:54;22.40;72.50
22416;DHT22;12204;50.600;4.608;2022-09-23T05:49:58;22.40;72.40
22416;DHT22;12204;50.600;4.608;2022-09-23T05:55:03;22.40;72.40
22416;DHT22;12204;50.600;4.608;2022-09-23T06:00:09;22.40;72.50
22416;DHT22;12204;50.600;4.608;2022-09-23T06:05:14;22.40;72.60
22416;DHT22;12204;50.600;4.608;2022-09-23T06:10:19;22.40;72.60
22416;DHT22;12204;50.600;4.608;2022-09-23T06:15:23;22.40;73.10
22416;DHT22;12204;50.600;4.608;2022-09-23T06:20:27;22.40;72.70
22416;DHT22;12204;50.600;4.608;2022-09-23T06:25:33;22.40;72.70
22416;DHT22;12204;50.600;4.608;2022-09-23T06:30:39;22.40;72.50
22416;DHT22;12204;50.600;4.608;2022-09-23T06:35:43;22.30;72.50
22416;DHT22;12204;50.600;4.608;2022-09-23T06:41:00;22.30;72.50
22416;DHT22;12204;50.600;4.608;2022-09-23T06:46:06;22.30;72.40
22416;DHT22;12204;50.600;4.608;2022-09-23T06:51:12;22.30;72.60
22416;DHT22;12204;50.600;4.608;2022-09-23T06:56:21;22.30;72.60
22416;DHT22;12204;50.600;4.608;2022-09-23T07:01:25;22.30;72.70
22416;DHT22;12204;50.600;4.608;2022-09-23T07:06:29;22.30;72.50
22416;DHT22;12204;50.600;4.608;2022-09-23T07:11:34;22.30;72.60
22416;DHT22;12204;50.600;4.608;2022-09-23T07:16:38;22.30;72.40
22416;DHT22;12204;50.600;4.608;2022-09-23T07:21:42;22.30;70.30
22416;DHT22;12204;50.600;4.608;2022-09-23T07:26:47;22.20;69.30
22416;DHT22;12204;50.600;4.608;2022-09-23T07:31:51;22.20;69.00
22416;DHT22;12204;50.600;4.608;2022-09-23T07:37:07;22.20;68.70
22416;DHT22;12204;50.600;4.608;2022-09-23T07:42:12;22.20;68.30
22416;DHT22;12204;50.600;4.608;2022-09-23T07:47:16;22.10;68.30
22416;DHT22;12204;50.600;4.608;2022-09-23T07:52:21;22.10;69.10
22416;DHT22;12204;50.600;4.608;2022-09-23T07:57:26;22.10;68.70
22416;DHT22;12204;50.600;4.608;2022-09-23T08:02:36;22.10;68.90
22416;DHT22;12204;50.600;4.608;2022-09-23T08:07:59;22.20;70.80
22416;DHT22;12204;50.600;4.608;2022-09-23T08:13:05;22.10;68.70
22416;DHT22;12204;50.600;4.608;2022-09-23T08:18:08;22.10;67.80
22416;DHT22;12204;50.600;4.608;2022-09-23T08:23:13;22.00;67.00
22416;DHT22;12204;50.600;4.608;2022-09-23T08:28:21;22.00;66.90
22416;DHT22;12204;50.600;4.608;2022-09-23T08:33:25;21.90;65.90
22416;DHT22;12204;50.600;4.608;2022-09-23T08:38:29;21.90;66.20
22416;DHT22;12204;50.600;4.608;2022-09-23T08:43:36;21.90;65.60
22416;DHT22;12204;50.600;4.608;2022-09-23T08:48:42;21.90;65.10
22416;DHT22;12204;50.600;4.608;2022-09-23T08:53:47;21.80;65.00
22416;DHT22;12204;50.600;4.608;2022-09-23T08:59:00;21.80;64.60
22416;DHT22;12204;50.600;4.608;2022-09-23T09:04:16;21.80;64.70
22416;DHT22;12204;50.600;4.608;2022-09-23T09:09:25;21.80;64.50
22416;DHT22;12204;50.600;4.608;2022-09-23T09:14:40;21.80;64.40
22416;DHT22;12204;50.600;4.608;2022-09-23T09:19:53;21.80;64.40
22416;DHT22;12204;50.600;4.608;2022-09-23T09:25:04;21.70;64.10
22416;DHT22;12204;50.600;4.608;2022-09-23T09:30:18;21.80;66.70
22416;DHT22;12204;50.600;4.608;2022-09-23T09:35:28;21.80;68.60
22416;DHT22;12204;50.600;4.608;2022-09-23T09:40:43;21.90;68.90
22416;DHT22;12204;50.600;4.608;2022-09-23T09:46:02;22.30;67.90
22416;DHT22;12204;50.600;4.608;2022-09-23T09:51:17;22.40;67.40
22416;DHT22;12204;50.600;4.608;2022-09-23T09:56:28;22.60;66.60
22416;DHT22;12204;50.600;4.608;2022-09-23T10:01:35;22.40;66.90
22416;DHT22;12204;50.600;4.608;2022-09-23T10:06:39;22.20;68.00
22416;DHT22;12204;50.600;4.608;2022-09-23T10:12:02;22.20;68.40
22416;DHT22;12204;50.600;4.608;2022-09-23T10:17:21;22.20;68.70
22416;DHT22;12204;50.600;4.608;2022-09-23T10:22:32;22.10;68.40
22416;DHT22;12204;50.600;4.608;2022-09-23T10:27:40;22.10;68.00
22416;DHT22;12204;50.600;4.608;2022-09-23T10:32:48;22.20;68.90
22416;DHT22;12204;50.600;4.608;2022-09-23T10:37:55;22.10;67.50
22416;DHT22;12204;50.600;4.608;2022-09-23T10:43:12;22.10;68.30
22416;DHT22;12204;50.600;4.608;2022-09-23T10:54:44;22.00;67.00
22416;DHT22;12204;50.600;4.608;2022-09-23T11:00:00;22.00;66.70
22416;DHT22;12204;50.600;4.608;2022-09-23T11:05:21;21.90;66.30
22416;DHT22;12204;50.600;4.608;2022-09-23T11:10:57;21.80;65.90
22416;DHT22;12204;50.600;4.608;2022-09-23T11:16:25;21.90;65.50
22416;DHT22;12204;50.600;4.608;2022-09-23T11:21:51;21.90;68.70
22416;DHT22;12204;50.600;4.608;2022-09-23T11:27:09;22.00;71.00
22416;DHT22;12204;50.600;4.608;2022-09-23T11:32:51;22.00;71.10
22416;DHT22;12204;50.600;4.608;2022-09-23T11:38:10;22.00;70.70
22416;DHT22;12204;50.600;4.608;2022-09-23T11:43:19;22.00;70.70
22416;DHT22;12204;50.600;4.608;2022-09-23T11:48:31;22.10;70.20
22416;DHT22;12204;50.600;4.608;2022-09-23T11:53:44;22.00;69.50
22416;DHT22;12204;50.600;4.608;2022-09-23T11:59:01;22.00;69.30
22416;DHT22;12204;50.600;4.608;2022-09-23T12:04:18;22.00;69.70
22416;DHT22;12204;50.600;4.608;2022-09-23T12:09:33;22.00;69.80
22416;DHT22;12204;50.600;4.608;2022-09-23T12:15:03;22.00;69.30
22416;DHT22;12204;50.600;4.608;2022-09-23T12:20:33;22.10;70.00
22416;DHT22;12204;50.600;4.608;2022-09-23T12:25:52;22.00;70.00
22416;DHT22;12204;50.600;4.608;2022-09-23T12:30:59;22.00;69.70
22416;DHT22;12204;50.600;4.608;2022-09-23T12:36:06;22.10;70.60
22416;DHT22;12204;50.600;4.608;2022-09-23T12:41:23;22.00;71.30
22416;DHT22;12204;50.600;4.608;2022-09-23T12:46:29;22.00;71.10
22416;DHT22;12204;50.600;4.608;2022-09-23T12:51:34;21.90;70.60
22416;DHT22;12204;50.600;4.608;2022-09-23T12:57:00;21.90;69.90
22416;DHT22;12204;50.600;4.608;2022-09-23T13:02:25;21.90;69.20
22416;DHT22;12204;50.600;4.608;2022-09-23T13:07:33;21.90;68.70
22416;DHT22;12204;50.600;4.608;2022-09-23T13:12:39;21.80;68.00
22416;DHT22;12204;50.600;4.608;2022-09-23T13:17:45;21.80;67.20
22416;DHT22;12204;50.600;4.608;2022-09-23T13:23:15;21.80;67.00
22416;DHT22;12204;50.600;4.608;2022-09-23T13:28:31;21.80;67.60
22416;DHT22;12204;50.600;4.608;2022-09-23T13:33:41;21.90;68.10
22416;DHT22;12204;50.600;4.608;2022-09-23T13:38:47;21.90;68.10
22416;DHT22;12204;50.600;4.608;2022-09-23T13:43:54;21.90;68.30
22416;DHT22;12204;50.600;4.608;2022-09-23T13:49:00;21.80;68.40
22416;DHT22;12204;50.600;4.608;2022-09-23T13:54:04;21.90;68.50
22416;DHT22;12204;50.600;4.608;2022-09-23T13:59:22;21.90;68.70
22416;DHT22;12204;50.600;4.608;2022-09-23T14:04:27;21.80;69.40
22416;DHT22;12204;50.600;4.608;2022-09-23T14:09:32;21.90;68.70
22416;DHT22;12204;50.600;4.608;2022-09-23T14:14:39;21.80;68.80
22416;DHT22;12204;50.600;4.608;2022-09-23T14:19:44;21.80;68.80
22416;DHT22;12204;50.600;4.608;2022-09-23T14:24:49;21.80;68.90
22416;DHT22;12204;50.600;4.608;2022-09-23T14:29:55;21.80;69.00
22416;DHT22;12204;50.600;4.608;2022-09-23T14:35:17;21.80;69.10
22416;DHT22;12204;50.600;4.608;2022-09-23T14:40:25;21.80;69.20
22416;DHT22;12204;50.600;4.608;2022-09-23T14:45:35;21.80;69.30
22416;DHT22;12204;50.600;4.608;2022-09-23T14:50:45;21.80;70.00
22416;DHT22;12204;50.600;4.608;2022-09-23T14:55:52;21.90;68.80
22416;DHT22;12204;50.600;4.608;2022-09-23T15:01:00;22.00;71.60
22416;DHT22;12204;50.600;4.608;2022-09-23T15:06:06;22.10;72.10
22416;DHT22;12204;50.600;4.608;2022-09-23T15:11:11;22.10;71.70
22416;DHT22;12204;50.600;4.608;2022-09-23T15:16:23;22.00;71.30
22416;DHT22;12204;50.600;4.608;2022-09-23T15:21:33;22.00;71.70
22416;DHT22;12204;50.600;4.608;2022-09-23T15:26:45;22.00;72.00
22416;DHT22;12204;50.600;4.608;2022-09-23T15:31:54;22.00;71.70
22416;DHT22;12204;50.600;4.608;2022-09-23T15:36:59;22.00;73.00
22416;DHT22;12204;50.600;4.608;2022-09-23T15:42:03;22.10;73.90
22416;DHT22;12204;50.600;4.608;2022-09-23T15:47:11;22.10;75.10
22416;DHT22;12204;50.600;4.608;2022-09-23T15:52:19;22.10;72.90
22416;DHT22;12204;50.600;4.608;2022-09-23T15:57:23;22.10;72.80
22416;DHT22;12204;50.600;4.608;2022-09-23T16:02:29;22.10;73.30
22416;DHT22;12204;50.600;4.608;2022-09-23T16:07:33;22.10;73.50
22416;DHT22;12204;50.600;4.608;2022-09-23T16:12:37;22.10;74.30
22416;DHT22;12204;50.600;4.608;2022-09-23T16:17:41;22.10;74.80
22416;DHT22;12204;50.600;4.608;2022-09-23T16:22:51;22.00;74.60
22416;DHT22;12204;50.600;4.608;2022-09-23T16:27:58;21.90;74.40
22416;DHT22;12204;50.600;4.608;2022-09-23T16:33:03;21.90;74.60
22416;DHT22;12204;50.600;4.608;2022-09-23T16:38:07;21.90;74.50
22416;DHT22;12204;50.600;4.608;2022-09-23T16:43:11;21.90;74.40
22416;DHT22;12204;50.600;4.608;2022-09-23T16:48:15;21.90;74.30
22416;DHT22;12204;50.600;4.608;2022-09-23T16:53:20;21.80;74.10
22416;DHT22;12204;50.600;4.608;2022-09-23T16:58:24;21.80;74.00
22416;DHT22;12204;50.600;4.608;2022-09-23T17:03:29;21.80;73.90
22416;DHT22;12204;50.600;4.608;2022-09-23T17:08:42;21.80;73.80
22416;DHT22;12204;50.600;4.608;2022-09-23T17:13:48;21.80;73.80
22416;DHT22;12204;50.600;4.608;2022-09-23T17:18:54;21.80;73.70
22416;DHT22;12204;50.600;4.608;2022-09-23T17:23:58;21.80;73.60
22416;DHT22;12204;50.600;4.608;2022-09-23T17:29:01;21.70;73.60
22416;DHT22;12204;50.600;4.608;2022-09-23T17:34:07;21.70;73.50
22416;DHT22;12204;50.600;4.608;2022-09-23T17:39:11;21.70;73.50
22416;DHT22;12204;50.600;4.608;2022-09-23T17:44:14;21.70;73.50
22416;DHT22;12204;50.600;4.608;2022-09-23T17:49:19;21.70;73.40
22416;DHT22;12204;50.600;4.608;2022-09-23T17:54:25;21.70;73.30
22416;DHT22;12204;50.600;4.608;2022-09-23T17:59:28;21.70;73.30
22416;DHT22;12204;50.600;4.608;2022-09-23T18:04:33;21.70;73.20
22416;DHT22;12204;50.600;4.608;2022-09-23T18:09:36;21.60;73.20
22416;DHT22;12204;50.600;4.608;2022-09-23T18:14:40;21.70;73.00
22416;DHT22;12204;50.600;4.608;2022-09-23T18:19:47;21.80;73.30
22416;DHT22;12204;50.600;4.608;2022-09-23T18:24:51;22.10;72.30
22416;DHT22;12204;50.600;4.608;2022-09-23T18:29:54;22.60;70.80
22416;DHT22;12204;50.600;4.608;2022-09-23T18:34:59;23.00;69.50
22416;DHT22;12204;50.600;4.608;2022-09-23T18:40:04;23.20;68.50
22416;DHT22;12204;50.600;4.608;2022-09-23T18:45:15;23.50;68.00
22416;DHT22;12204;50.600;4.608;2022-09-23T18:50:20;23.60;67.50
22416;DHT22;12204;50.600;4.608;2022-09-23T18:55:43;23.70;67.30
22416;DHT22;12204;50.600;4.608;2022-09-23T19:00:47;23.70;67.20
22416;DHT22;12204;50.600;4.608;2022-09-23T19:05:53;23.70;67.20
22416;DHT22;12204;50.600;4.608;2022-09-23T19:10:57;23.70;67.20
22416;DHT22;12204;50.600;4.608;2022-09-23T19:16:04;23.70;67.30
22416;DHT22;12204;50.600;4.608;2022-09-23T19:21:13;23.60;67.30
22416;DHT22;12204;50.600;4.608;2022-09-23T19:26:21;23.50;67.40
22416;DHT22;12204;50.600;4.608;2022-09-23T19:31:28;23.50;67.60
22416;DHT22;12204;50.600;4.608;2022-09-23T19:36:38;23.50;67.70
22416;DHT22;12204;50.600;4.608;2022-09-23T19:41:44;23.40;67.80
22416;DHT22;12204;50.600;4.608;2022-09-23T19:46:47;23.40;68.00
22416;DHT22;12204;50.600;4.608;2022-09-23T19:51:59;23.40;68.30
22416;DHT22;12204;50.600;4.608;2022-09-23T19:57:02;23.30;68.30
22416;DHT22;12204;50.600;4.608;2022-09-23T20:02:08;23.30;68.50
22416;DHT22;12204;50.600;4.608;2022-09-23T20:07:14;23.20;68.70
22416;DHT22;12204;50.600;4.608;2022-09-23T20:12:17;23.20;68.90
22416;DHT22;12204;50.600;4.608;2022-09-23T20:17:21;23.10;69.00
22416;DHT22;12204;50.600;4.608;2022-09-23T20:22:26;23.10;69.20
22416;DHT22;12204;50.600;4.608;2022-09-23T20:27:34;23.00;69.30
22416;DHT22;12204;50.600;4.608;2022-09-23T20:32:38;23.00;69.40
22416;DHT22;12204;50.600;4.608;2022-09-23T20:37:47;23.00;69.30
22416;DHT22;12204;50.600;4.608;2022-09-23T20:42:50;23.10;69.30
22416;DHT22;12204;50.600;4.608;2022-09-23T20:47:56;23.10;69.00
22416;DHT22;12204;50.600;4.608;2022-09-23T20:53:01;23.30;68.60
22416;DHT22;12204;50.600;4.608;2022-09-23T20:58:05;23.40;68.20
22416;DHT22;12204;50.600;4.608;2022-09-23T21:03:11;23.40;67.90
22416;DHT22;12204;50.600;4.608;2022-09-23T21:08:16;23.50;67.90
22416;DHT22;12204;50.600;4.608;2022-09-23T21:13:20;23.50;67.70
22416;DHT22;12204;50.600;4.608;2022-09-23T21:18:24;23.50;67.70
22416;DHT22;12204;50.600;4.608;2022-09-23T21:23:30;23.50;67.80
22416;DHT22;12204;50.600;4.608;2022-09-23T21:28:36;23.50;67.90
22416;DHT22;12204;50.600;4.608;2022-09-23T21:33:41;23.50;68.00
22416;DHT22;12204;50.600;4.608;2022-09-23T21:38:47;23.40;68.00
22416;DHT22;12204;50.600;4.608;2022-09-23T21:43:51;23.40;68.20
22416;DHT22;12204;50.600;4.608;2022-09-23T21:48:56;23.40;68.90
22416;DHT22;12204;50.600;4.608;2022-09-23T21:54:03;23.30;68.70
22416;DHT22;12204;50.600;4.608;2022-09-23T21:59:07;23.30;68.90
22416;DHT22;12204;50.600;4.608;2022-09-23T22:04:13;23.30;69.00
22416;DHT22;12204;50.600;4.608;2022-09-23T22:09:20;23.30;69.30
22416;DHT22;12204;50.600;4.608;2022-09-23T22:14:24;23.30;70.10
22416;DHT22;12204;50.600;4.608;2022-09-23T22:19:30;23.30;70.60
22416;DHT22;12204;50.600;4.608;2022-09-23T22:24:37;23.20;71.00
22416;DHT22;12204;50.600;4.608;2022-09-23T22:29:41;23.20;71.40
22416;DHT22;12204;50.600;4.608;2022-09-23T22:35:04;23.20;71.40
22416;DHT22;12204;50.600;4.608;2022-09-23T22:40:12;23.10;71.50
22416;DHT22;12204;50.600;4.608;2022-09-23T22:45:17;23.20;71.70
22416;DHT22;12204;50.600;4.608;2022-09-23T22:50:20;23.20;71.30
22416;DHT22;12204;50.600;4.608;2022-09-23T22:55:26;23.20;71.40
22416;DHT22;12204;50.600;4.608;2022-09-23T23:00:29;23.20;71.40
22416;DHT22;12204;50.600;4.608;2022-09-23T23:05:33;23.20;71.50
22416;DHT22;12204;50.600;4.608;2022-09-23T23:10:38;23.20;71.50
22416;DHT22;12204;50.600;4.608;2022-09-23T23:15:41;23.20;71.70
22416;DHT22;12204;50.600;4.608;2022-09-23T23:20:45;23.20;71.60
22416;DHT22;12204;50.600;4.608;2022-09-23T23:25:50;23.20;71.40
22416;DHT22;12204;50.600;4.608;2022-09-23T23:30:54;23.20;71.40
22416;DHT22;12204;50.600;4.608;2022-09-23T23:35:57;23.20;71.50
22416;DHT22;12204;50.600;4.608;2022-09-23T23:41:03;23.20;71.60
22416;DHT22;12204;50.600;4.608;2022-09-23T23:46:09;23.10;71.60
22416;DHT22;12204;50.600;4.608;2022-09-23T23:51:14;23.10;71.80
22416;DHT22;12204;50.600;4.608;2022-09-23T23:56:21;23.10;71.80
